Time;durP1;ratioP1;P1;durP2;ratioP2;P2;SDS_P1;SDS_P2;PMS_P1;PMS_P2;Temp;Humidity;BMP_temperature;BMP_pressure;BME280_temperature;BME280_humidity;BME280_pressure;Samples;Min_cycle;Max_cycle;Signal;HPM_P1;HPM_P2
2021/09/13 00:01:30;;;;;;;8.80;8.00;;;;;;;;;;5113634;28;20452;-67
2021/09/13 00:03:57;;;;;;;11.47;9.37;;;;;;;;;;5113895;28;20527;-67
2021/09/13 00:06:25;;;;;;;12.00;9.27;;;;;;;;;;5113813;28;20497;-67
2021/09/13 00:08:52;;;;;;;14.23;9.53;;;;;;;;;;5113709;28;20495;-67
2021/09/13 00:11:21;;;;;;;11.70;10.00;;;;;;;;;;5113909;28;20451;-67
2021/09/13 00:13:48;;;;;;;11.30;9.30;;;;;;;;;;5113717;28;20483;-67
2021/09/13 00:16:15;;;;;;;9.73;8.83;;;;;;;;;;5113716;28;20452;-67
2021/09/13 00:18:43;;;;;;;11.13;9.40;;;;;;;;;;5113382;28;20546;-67
2021/09/13 00:21:10;;;;;;;10.73;9.17;;;;;;;;;;5113724;28;20446;-67
2021/09/13 00:23:37;;;;;;;10.50;9.00;;;;;;;;;;5114404;28;21047;-67
2021/09/13 00:26:04;;;;;;;9.23;8.27;;;;;;;;;;5117857;28;20499;-67
2021/09/13 00:28:33;;;;;;;10.80;9.13;;;;;;;;;;5117871;28;20455;-66
2021/09/13 00:31:00;;;;;;;9.07;8.13;;;;;;;;;;5117896;28;20867;-68
2021/09/13 00:33:27;;;;;;;9.50;8.53;;;;;;;;;;5117804;28;20551;-67
2021/09/13 00:35:55;;;;;;;12.33;8.60;;;;;;;;;;5117656;28;20447;-67
2021/09/13 00:38:22;;;;;;;10.30;9.20;;;;;;;;;;5117662;28;20451;-68
2021/09/13 00:40:49;;;;;;;9.70;8.80;;;;;;;;;;5117380;27;20496;-67
2021/09/13 00:43:17;;;;;;;9.30;8.40;;;;;;;;;;5117529;28;20512;-67
2021/09/13 00:45:45;;;;;;;10.67;8.17;;;;;;;;;;5118165;28;20534;-64
2021/09/13 00:48:12;;;;;;;9.60;8.63;;;;;;;;;;5117541;28;20442;-66
2021/09/13 00:50:40;;;;;;;12.10;9.60;;;;;;;;;;5117178;28;21022;-67
2021/09/13 00:53:07;;;;;;;10.80;9.10;;;;;;;;;;5116877;28;20474;-67
2021/09/13 00:55:34;;;;;;;10.00;9.00;;;;;;;;;;5117168;28;20455;-67
2021/09/13 00:58:02;;;;;;;10.50;9.40;;;;;;;;;;5117803;28;20447;-67
2021/09/13 01:00:29;;;;;;;12.40;9.63;;;;;;;;;;5117249;28;20562;-67
2021/09/13 01:02:57;;;;;;;19.03;11.07;;;;;;;;;;5117207;28;20479;-67
2021/09/13 01:05:25;;;;;;;15.17;10.40;;;;;;;;;;5117330;28;20438;-67
2021/09/13 01:07:52;;;;;;;12.13;10.77;;;;;;;;;;5116848;28;20953;-67
2021/09/13 01:10:19;;;;;;;11.37;10.27;;;;;;;;;;5117249;28;20444;-67
2021/09/13 01:12:47;;;;;;;12.53;11.13;;;;;;;;;;5116993;28;20467;-67
2021/09/13 01:15:14;;;;;;;11.67;10.03;;;;;;;;;;5116790;28;20437;-67
2021/09/13 01:17:41;;;;;;;13.97;10.10;;;;;;;;;;5116914;28;20452;-67
2021/09/13 01:20:11;;;;;;;14.27;10.43;;;;;;;;;;5116982;28;20449;-66
2021/09/13 01:22:38;;;;;;;11.00;9.90;;;;;;;;;;5116504;28;20459;-67
2021/09/13 01:25:07;;;;;;;11.87;10.67;;;;;;;;;;5116776;28;20435;-67
2021/09/13 01:27:34;;;;;;;10.70;9.60;;;;;;;;;;5116729;28;20982;-67
2021/09/13 01:30:02;;;;;;;10.93;9.83;;;;;;;;;;5116710;28;20442;-68
2021/09/13 01:32:29;;;;;;;11.40;10.30;;;;;;;;;;5116678;28;20575;-68
2021/09/13 01:34:56;;;;;;;13.97;10.87;;;;;;;;;;5118487;28;20459;-67
2021/09/13 01:37:23;;;;;;;9.97;9.00;;;;;;;;;;5116636;28;20804;-66
2021/09/13 01:39:50;;;;;;;14.93;10.30;;;;;;;;;;5117028;28;20496;-68
2021/09/13 01:42:19;;;;;;;11.50;9.33;;;;;;;;;;5116791;28;20460;-67
2021/09/13 01:44:46;;;;;;;10.30;9.30;;;;;;;;;;5116248;28;20935;-67
2021/09/13 01:47:14;;;;;;;10.20;9.20;;;;;;;;;;5116010;28;20506;-65
2021/09/13 01:49:41;;;;;;;17.43;9.30;;;;;;;;;;5116511;28;20481;-67
2021/09/13 01:52:08;;;;;;;10.67;8.50;;;;;;;;;;5116226;27;20645;-67
2021/09/13 01:54:35;;;;;;;11.17;9.90;;;;;;;;;;5115815;28;20994;-66
2021/09/13 01:57:03;;;;;;;11.63;8.97;;;;;;;;;;5116238;27;20445;-66
2021/09/13 01:59:31;;;;;;;9.93;8.47;;;;;;;;;;5116143;28;20522;-67
2021/09/13 02:01:58;;;;;;;11.33;8.00;;;;;;;;;;5116071;28;20878;-67
2021/09/13 02:04:26;;;;;;;9.97;8.97;;;;;;;;;;5115893;28;20488;-68
2021/09/13 02:06:53;;;;;;;9.43;8.33;;;;;;;;;;5115782;28;20501;-67
2021/09/13 02:09:20;;;;;;;8.73;7.83;;;;;;;;;;5115688;28;20450;-68
2021/09/13 02:11:47;;;;;;;10.33;9.00;;;;;;;;;;5115769;28;20464;-67
2021/09/13 02:14:14;;;;;;;11.80;9.00;;;;;;;;;;5115920;28;20555;-67
2021/09/13 02:16:43;;;;;;;13.17;9.10;;;;;;;;;;5116197;28;20499;-67
2021/09/13 02:19:10;;;;;;;10.63;8.40;;;;;;;;;;5115686;28;20987;-67
2021/09/13 02:21:38;;;;;;;9.97;8.37;;;;;;;;;;5115708;28;20442;-67
2021/09/13 02:24:05;;;;;;;9.57;8.57;;;;;;;;;;5115609;27;20435;-67
2021/09/13 02:26:32;;;;;;;9.97;8.93;;;;;;;;;;5115691;28;20493;-65
2021/09/13 02:29:00;;;;;;;9.07;7.77;;;;;;;;;;5115531;28;20523;-67
2021/09/13 02:31:27;;;;;;;9.50;8.60;;;;;;;;;;5115170;28;20472;-66
2021/09/13 02:33:56;;;;;;;10.87;9.07;;;;;;;;;;5115422;28;20560;-66
2021/09/13 02:36:23;;;;;;;8.83;7.80;;;;;;;;;;5115118;28;20936;-67
2021/09/13 02:38:50;;;;;;;10.20;7.60;;;;;;;;;;5115473;28;20490;-67
2021/09/13 02:41:17;;;;;;;10.60;8.17;;;;;;;;;;5115319;28;20522;-68
2021/09/13 02:43:45;;;;;;;8.87;7.60;;;;;;;;;;5114978;28;20978;-67
2021/09/13 02:46:14;;;;;;;12.80;7.90;;;;;;;;;;5115250;28;20493;-66
2021/09/13 02:48:42;;;;;;;12.27;7.97;;;;;;;;;;5114366;28;20864;-68
2021/09/13 02:51:10;;;;;;;8.80;7.90;;;;;;;;;;5115844;28;20455;-67
2021/09/13 02:53:38;;;;;;;11.53;7.90;;;;;;;;;;5115102;28;20477;-67
2021/09/13 02:56:05;;;;;;;8.20;7.20;;;;;;;;;;5115049;28;20481;-68
2021/09/13 02:58:33;;;;;;;12.17;7.90;;;;;;;;;;5115107;28;20491;-68
2021/09/13 03:01:00;;;;;;;10.73;7.70;;;;;;;;;;5114950;28;20500;-67
2021/09/13 03:03:27;;;;;;;9.90;7.87;;;;;;;;;;5114815;28;20863;-66
2021/09/13 03:05:54;;;;;;;8.37;7.57;;;;;;;;;;5114462;28;20495;-67
2021/09/13 03:08:23;;;;;;;9.93;7.30;;;;;;;;;;5114670;28;20499;-67
2021/09/13 03:10:50;;;;;;;13.93;7.73;;;;;;;;;;5114745;28;20507;-67
2021/09/13 03:13:18;;;;;;;11.60;7.57;;;;;;;;;;5114690;28;20811;-68
2021/09/13 03:15:45;;;;;;;8.53;7.17;;;;;;;;;;5114576;28;20576;-67
2021/09/13 03:18:13;;;;;;;10.20;6.50;;;;;;;;;;5114581;28;20494;-68
2021/09/13 03:20:40;;;;;;;9.97;7.30;;;;;;;;;;5114938;28;20981;-66
2021/09/13 03:23:07;;;;;;;6.97;6.20;;;;;;;;;;5114201;28;20991;-67
2021/09/13 03:25:36;;;;;;;8.13;6.43;;;;;;;;;;5114234;28;20501;-68
2021/09/13 03:28:04;;;;;;;7.30;5.70;;;;;;;;;;5114522;28;20439;-69
2021/09/13 03:30:31;;;;;;;7.17;6.27;;;;;;;;;;5114143;28;21014;-68
2021/09/13 03:32:58;;;;;;;7.27;5.17;;;;;;;;;;5114029;28;20529;-67
2021/09/13 03:35:25;;;;;;;7.90;5.13;;;;;;;;;;5114025;28;20476;-67
2021/09/13 03:37:53;;;;;;;8.50;6.33;;;;;;;;;;5114244;28;20443;-67
2021/09/13 03:40:20;;;;;;;7.97;6.53;;;;;;;;;;5114232;28;20453;-67
2021/09/13 03:42:48;;;;;;;7.03;5.17;;;;;;;;;;5113923;28;21025;-67
2021/09/13 03:45:16;;;;;;;6.77;5.23;;;;;;;;;;5114082;28;20857;-68
2021/09/13 03:47:43;;;;;;;8.30;5.50;;;;;;;;;;5113880;28;20443;-67
2021/09/13 03:50:10;;;;;;;8.60;4.70;;;;;;;;;;5114309;28;20489;-67
2021/09/13 03:52:38;;;;;;;10.53;5.63;;;;;;;;;;5113993;28;20464;-67
2021/09/13 03:55:05;;;;;;;5.10;4.60;;;;;;;;;;5114006;28;20809;-68
2021/09/13 03:57:33;;;;;;;6.87;4.60;;;;;;;;;;5114311;28;20446;-67
2021/09/13 04:00:01;;;;;;;7.47;4.50;;;;;;;;;;5113683;28;20562;-67
2021/09/13 04:02:30;;;;;;;5.87;4.60;;;;;;;;;;5113848;28;20471;-68
2021/09/13 04:04:57;;;;;;;10.73;4.90;;;;;;;;;;5113849;28;20443;-68
2021/09/13 04:08:48;;;;;;;5.43;4.90;;;;;;;;;;5091775;27;20543;-67
2021/09/13 04:11:22;;;;;;;7.50;5.57;;;;;;;;;;5093233;22;21064;-55
2021/09/13 04:13:49;;;;;;;10.67;4.70;;;;;;;;;;5050529;28;20433;-55
2021/09/13 04:16:16;;;;;;;5.30;4.50;;;;;;;;;;5050201;28;20456;-55
2021/09/13 04:18:44;;;;;;;6.77;5.13;;;;;;;;;;5050286;28;20505;-55
2021/09/13 04:21:11;;;;;;;6.90;4.47;;;;;;;;;;5050076;28;20497;-55
2021/09/13 04:23:39;;;;;;;13.13;5.20;;;;;;;;;;5050586;28;20516;-54
2021/09/13 04:26:07;;;;;;;8.70;4.80;;;;;;;;;;5050334;28;20449;-55
2021/09/13 04:28:34;;;;;;;8.03;5.17;;;;;;;;;;5050201;28;20482;-55
2021/09/13 04:31:01;;;;;;;5.43;4.43;;;;;;;;;;5049900;28;20523;-55
2021/09/13 04:33:28;;;;;;;5.57;4.57;;;;;;;;;;5049969;28;20451;-56
2021/09/13 04:35:56;;;;;;;8.30;4.60;;;;;;;;;;5050534;28;20503;-56
2021/09/13 04:38:23;;;;;;;5.70;4.70;;;;;;;;;;5049934;28;20443;-56
2021/09/13 04:40:51;;;;;;;6.57;5.53;;;;;;;;;;5050040;28;20475;-54
2021/09/13 04:43:19;;;;;;;6.10;4.30;;;;;;;;;;5050078;28;20442;-55
2021/09/13 04:45:46;;;;;;;6.63;4.70;;;;;;;;;;5049893;28;20453;-56
2021/09/13 04:48:13;;;;;;;7.60;4.57;;;;;;;;;;5050213;28;20523;-56
2021/09/13 04:50:40;;;;;;;5.83;4.43;;;;;;;;;;5051098;28;20468;-55
2021/09/13 04:53:07;;;;;;;6.20;3.90;;;;;;;;;;5049776;28;20477;-55
2021/09/13 04:55:35;;;;;;;10.40;3.73;;;;;;;;;;5049856;28;20494;-55
2021/09/13 04:58:04;;;;;;;4.37;3.83;;;;;;;;;;5049998;28;20530;-56
2021/09/13 05:00:31;;;;;;;8.43;4.20;;;;;;;;;;5049858;28;20526;-55
2021/09/13 05:02:58;;;;;;;4.60;4.20;;;;;;;;;;5050131;28;20449;-55
2021/09/13 05:05:26;;;;;;;6.87;4.33;;;;;;;;;;5050169;28;20448;-55
2021/09/13 05:07:53;;;;;;;6.50;4.00;;;;;;;;;;5049783;28;20487;-55
2021/09/13 05:10:20;;;;;;;5.63;3.70;;;;;;;;;;5049375;28;20531;-55
2021/09/13 05:12:47;;;;;;;6.50;3.47;;;;;;;;;;5049559;28;20447;-54
2021/09/13 05:15:16;;;;;;;6.90;3.57;;;;;;;;;;5049283;28;20932;-54
2021/09/13 05:17:43;;;;;;;6.67;3.90;;;;;;;;;;5048936;28;20502;-54
2021/09/13 05:20:11;;;;;;;5.50;4.17;;;;;;;;;;5035877;28;20466;-55
2021/09/13 05:22:38;;;;;;;4.77;3.20;;;;;;;;;;5036084;28;20448;-55
2021/09/13 05:25:06;;;;;;;6.43;3.30;;;;;;;;;;5035934;28;20450;-55
2021/09/13 05:27:33;;;;;;;4.87;3.00;;;;;;;;;;5035592;28;20968;-56
2021/09/13 05:30:01;;;;;;;6.83;3.83;;;;;;;;;;5035650;28;20469;-55
2021/09/13 05:32:30;;;;;;;8.17;3.90;;;;;;;;;;5035583;28;20457;-56
2021/09/13 05:34:57;;;;;;;7.30;3.93;;;;;;;;;;5035632;28;20489;-55
2021/09/13 05:37:24;;;;;;;8.43;4.90;;;;;;;;;;5035804;28;20465;-55
2021/09/13 05:39:52;;;;;;;6.30;3.10;;;;;;;;;;5035384;28;20466;-56
2021/09/13 05:42:19;;;;;;;6.93;3.83;;;;;;;;;;5035885;28;20450;-56
2021/09/13 05:44:46;;;;;;;7.07;3.57;;;;;;;;;;5035281;28;20451;-56
2021/09/13 05:47:13;;;;;;;7.20;4.13;;;;;;;;;;5035073;28;21092;-56
2021/09/13 05:49:42;;;;;;;5.10;4.13;;;;;;;;;;5035191;28;20451;-56
2021/09/13 05:52:09;;;;;;;5.43;3.87;;;;;;;;;;5035188;28;20449;-56
2021/09/13 05:54:36;;;;;;;4.17;3.33;;;;;;;;;;5035159;28;20450;-56
2021/09/13 05:57:04;;;;;;;6.47;4.07;;;;;;;;;;5035360;28;20451;-56
2021/09/13 05:59:31;;;;;;;9.87;3.87;;;;;;;;;;5034863;28;20931;-56
2021/09/13 06:01:58;;;;;;;6.77;3.90;;;;;;;;;;5035230;28;20497;-56
2021/09/13 06:04:28;;;;;;;7.83;3.57;;;;;;;;;;5035159;28;20452;-56
2021/09/13 06:06:57;;;;;;;7.97;4.10;;;;;;;;;;5034744;28;20939;-56
2021/09/13 06:09:24;;;;;;;10.77;4.10;;;;;;;;;;5034392;28;20448;-56
2021/09/13 06:11:51;;;;;;;7.60;3.93;;;;;;;;;;5035058;28;20453;-56
2021/09/13 06:14:19;;;;;;;7.27;4.00;;;;;;;;;;5034604;28;20452;-57
2021/09/13 06:16:46;;;;;;;4.20;3.60;;;;;;;;;;5035000;28;20442;-56
2021/09/13 06:19:13;;;;;;;8.90;4.70;;;;;;;;;;5034563;28;20448;-55
2021/09/13 06:21:40;;;;;;;7.53;4.90;;;;;;;;;;5034794;28;20471;-55
2021/09/13 06:24:09;;;;;;;12.30;3.97;;;;;;;;;;5034939;28;20862;-56
2021/09/13 06:26:37;;;;;;;8.93;4.23;;;;;;;;;;5034810;28;20514;-56
2021/09/13 06:29:04;;;;;;;11.40;5.10;;;;;;;;;;5034725;28;20533;-56
2021/09/13 06:31:31;;;;;;;10.37;5.60;;;;;;;;;;5033304;28;20886;-56
2021/09/13 06:33:59;;;;;;;10.13;5.30;;;;;;;;;;5034067;28;20447;-55
2021/09/13 06:36:27;;;;;;;9.50;5.50;;;;;;;;;;5034329;28;20532;-55
2021/09/13 06:38:54;;;;;;;8.70;5.13;;;;;;;;;;5034417;28;20454;-55
2021/09/13 06:41:23;;;;;;;10.77;5.20;;;;;;;;;;5033939;28;20472;-56
2021/09/13 06:43:52;;;;;;;15.07;6.87;;;;;;;;;;5034420;28;20464;-58
2021/09/13 06:46:22;;;;;;;16.27;7.63;;;;;;;;;;5034310;28;20487;-57
2021/09/13 06:48:50;;;;;;;9.80;7.10;;;;;;;;;;5033946;28;20483;-57
2021/09/13 06:51:18;;;;;;;7.33;5.40;;;;;;;;;;5033664;28;20471;-57
2021/09/13 06:53:45;;;;;;;11.97;6.90;;;;;;;;;;5034140;28;20451;-56
2021/09/13 06:56:12;;;;;;;8.80;6.23;;;;;;;;;;5033917;28;20460;-55
2021/09/13 06:58:41;;;;;;;9.13;7.00;;;;;;;;;;5034122;28;20447;-55
2021/09/13 07:01:09;;;;;;;13.77;6.17;;;;;;;;;;5033586;28;20526;-55
2021/09/13 07:03:36;;;;;;;8.90;6.80;;;;;;;;;;5033859;28;20528;-56
2021/09/13 07:06:03;;;;;;;9.87;6.70;;;;;;;;;;5033856;28;20873;-56
2021/09/13 07:08:30;;;;;;;17.20;7.27;;;;;;;;;;5033302;28;21010;-55
2021/09/13 07:10:59;;;;;;;11.57;6.40;;;;;;;;;;5033339;28;20614;-56
2021/09/13 07:13:26;;;;;;;11.50;5.80;;;;;;;;;;5033803;28;20481;-56
2021/09/13 07:15:54;;;;;;;9.00;6.10;;;;;;;;;;5033383;28;20448;-56
2021/09/13 07:18:22;;;;;;;6.13;5.43;;;;;;;;;;5033426;28;20455;-55
2021/09/13 07:20:49;;;;;;;11.73;6.63;;;;;;;;;;5035760;28;20975;-56
2021/09/13 07:23:16;;;;;;;11.90;6.20;;;;;;;;;;5036534;28;20521;-55
2021/09/13 07:25:44;;;;;;;8.23;6.10;;;;;;;;;;5033513;28;20439;-55
2021/09/13 07:28:11;;;;;;;10.80;6.10;;;;;;;;;;5033193;28;20951;-55
2021/09/13 07:30:38;;;;;;;9.80;6.30;;;;;;;;;;5033287;28;20514;-57
2021/09/13 07:33:07;;;;;;;13.30;7.07;;;;;;;;;;5033207;28;20499;-57
2021/09/13 07:35:34;;;;;;;10.53;6.10;;;;;;;;;;5033398;28;20501;-56
2021/09/13 07:38:01;;;;;;;8.20;6.20;;;;;;;;;;5033368;28;20448;-57
2021/09/13 07:40:29;;;;;;;13.10;5.53;;;;;;;;;;5033314;28;20467;-57
2021/09/13 07:42:56;;;;;;;13.30;6.27;;;;;;;;;;5032946;28;20452;-56
2021/09/13 07:45:24;;;;;;;10.27;6.00;;;;;;;;;;5032826;28;20537;-57
2021/09/13 07:47:52;;;;;;;10.87;5.53;;;;;;;;;;5032877;28;20489;-57
2021/09/13 07:50:20;;;;;;;7.90;5.93;;;;;;;;;;5032614;28;21023;-57
2021/09/13 07:52:48;;;;;;;6.73;5.20;;;;;;;;;;5033144;28;20451;-56
2021/09/13 07:55:15;;;;;;;11.03;6.03;;;;;;;;;;5032963;28;20939;-57
2021/09/13 07:57:43;;;;;;;8.40;5.57;;;;;;;;;;5032696;28;20498;-57
2021/09/13 08:00:11;;;;;;;7.30;5.33;;;;;;;;;;5032784;28;20502;-57
2021/09/13 08:02:38;;;;;;;10.97;5.60;;;;;;;;;;5032887;28;20449;-58
2021/09/13 08:05:05;;;;;;;11.47;6.50;;;;;;;;;;5033170;28;20514;-57
2021/09/13 08:07:34;;;;;;;10.87;5.83;;;;;;;;;;5032727;28;20864;-57
2021/09/13 08:10:01;;;;;;;7.90;6.60;;;;;;;;;;5032824;28;20483;-57
2021/09/13 08:12:29;;;;;;;11.27;6.30;;;;;;;;;;5033029;28;20451;-56
2021/09/13 08:14:56;;;;;;;8.13;5.90;;;;;;;;;;5032793;28;20502;-56
2021/09/13 08:17:23;;;;;;;9.20;7.10;;;;;;;;;;5032882;28;20448;-57
2021/09/13 08:19:50;;;;;;;12.80;7.47;;;;;;;;;;5032686;28;20464;-57
2021/09/13 08:22:18;;;;;;;10.83;6.37;;;;;;;;;;5032561;28;20460;-57
2021/09/13 08:24:46;;;;;;;9.53;6.20;;;;;;;;;;5032882;28;20450;-56
2021/09/13 08:27:13;;;;;;;7.67;5.87;;;;;;;;;;5033257;28;20518;-57
2021/09/13 08:29:41;;;;;;;8.97;5.90;;;;;;;;;;5032451;28;20473;-56
2021/09/13 08:32:08;;;;;;;12.30;5.80;;;;;;;;;;5032788;28;20449;-56
2021/09/13 08:34:36;;;;;;;6.57;5.20;;;;;;;;;;5032619;28;20938;-56
2021/09/13 08:37:03;;;;;;;8.57;6.17;;;;;;;;;;5032573;28;20463;-56
2021/09/13 08:39:30;;;;;;;9.53;6.40;;;;;;;;;;5032436;28;20450;-56
2021/09/13 08:41:59;;;;;;;9.03;6.30;;;;;;;;;;5033170;28;20531;-56
2021/09/13 08:44:27;;;;;;;9.60;5.60;;;;;;;;;;5032781;28;20522;-56
2021/09/13 08:47:00;;;;;;;7.23;5.60;;;;;;;;;;5032868;28;20449;-56
2021/09/13 08:49:30;;;;;;;13.57;7.93;;;;;;;;;;5032459;28;20473;-57
2021/09/13 08:51:58;;;;;;;8.90;7.43;;;;;;;;;;5032684;28;20444;-56
2021/09/13 08:54:29;;;;;;;10.93;9.00;;;;;;;;;;5034706;28;20451;-57
2021/09/13 08:56:59;;;;;;;12.40;9.70;;;;;;;;;;5036092;28;20472;-56
2021/09/13 08:59:27;;;;;;;12.50;8.50;;;;;;;;;;5036033;28;20822;-56
2021/09/13 09:01:55;;;;;;;13.37;9.70;;;;;;;;;;5036042;28;20448;-58
2021/09/13 09:04:23;;;;;;;9.03;6.87;;;;;;;;;;5036020;28;20911;-56
2021/09/13 09:06:50;;;;;;;9.00;6.73;;;;;;;;;;5036371;28;20444;-57
2021/09/13 09:09:18;;;;;;;12.90;9.80;;;;;;;;;;5035199;28;20483;-57
2021/09/13 09:12:08;;;;;;;10.00;8.00;;;;;;;;;;5035330;28;20848;-56
2021/09/13 09:14:42;;;;;;;11.00;8.90;;;;;;;;;;5031942;28;20468;-57
2021/09/13 09:17:13;;;;;;;12.23;9.30;;;;;;;;;;5036916;28;20440;-56
2021/09/13 09:19:40;;;;;;;13.60;9.20;;;;;;;;;;5035998;28;20516;-58
2021/09/13 09:22:24;;;;;;;16.40;9.80;;;;;;;;;;5035763;28;20933;-56
2021/09/13 09:24:52;;;;;;;14.63;10.93;;;;;;;;;;5036011;28;20433;-56
2021/09/13 09:27:20;;;;;;;17.43;10.97;;;;;;;;;;5035819;28;20446;-57
2021/09/13 09:29:48;;;;;;;16.03;12.40;;;;;;;;;;5035337;28;20900;-56
2021/09/13 09:32:23;;;;;;;18.10;12.37;;;;;;;;;;5035820;28;20450;-57
2021/09/13 09:34:50;;;;;;;19.47;13.83;;;;;;;;;;5035750;28;20444;-58
2021/09/13 09:37:19;;;;;;;18.27;13.43;;;;;;;;;;5035491;28;20540;-56
2021/09/13 09:39:49;;;;;;;21.40;16.03;;;;;;;;;;5036110;28;20474;-57
2021/09/13 09:42:28;;;;;;;22.60;16.57;;;;;;;;;;5035966;28;20536;-56
2021/09/13 09:44:57;;;;;;;20.17;14.43;;;;;;;;;;5035381;28;20536;-56
2021/09/13 09:47:24;;;;;;;20.27;13.30;;;;;;;;;;5035075;28;20455;-56
2021/09/13 09:49:52;;;;;;;18.23;13.87;;;;;;;;;;5034658;28;20539;-57
2021/09/13 09:52:34;;;;;;;16.00;12.70;;;;;;;;;;5035281;28;20439;-58
2021/09/13 09:55:11;;;;;;;24.13;15.93;;;;;;;;;;5035162;28;20430;-56
2021/09/13 09:57:39;;;;;;;21.40;15.90;;;;;;;;;;5034988;28;20889;-57
2021/09/13 10:00:20;;;;;;;22.93;16.53;;;;;;;;;;5035054;28;20463;-56
2021/09/13 10:02:48;;;;;;;21.60;15.20;;;;;;;;;;5035730;28;20454;-55
2021/09/13 10:05:15;;;;;;;19.57;15.37;;;;;;;;;;5034670;28;20458;-58
2021/09/13 10:07:44;;;;;;;21.33;16.53;;;;;;;;;;5035014;28;20504;-56
2021/09/13 10:12:40;;;;;;;18.90;15.07;;;;;;;;;;5013358;28;21018;-65
2021/09/13 10:15:08;;;;;;;16.00;14.30;;;;;;;;;;5015103;28;20503;-65
2021/09/13 10:17:37;;;;;;;14.17;11.67;;;;;;;;;;5014984;28;20985;-65
2021/09/13 10:20:05;;;;;;;16.17;12.90;;;;;;;;;;5015511;28;20538;-65
2021/09/13 10:22:34;;;;;;;14.17;12.77;;;;;;;;;;5014840;28;20472;-65
2021/09/13 10:25:02;;;;;;;12.90;10.20;;;;;;;;;;5015028;28;20445;-65
2021/09/13 10:27:29;;;;;;;12.30;11.00;;;;;;;;;;5014563;28;20933;-65
2021/09/13 10:30:16;;;;;;;10.73;9.30;;;;;;;;;;5015146;28;20934;-64
2021/09/13 10:32:45;;;;;;;12.27;8.73;;;;;;;;;;5014659;28;20440;-65
2021/09/13 10:35:13;;;;;;;13.60;11.07;;;;;;;;;;5014323;28;20441;-64
2021/09/13 10:37:42;;;;;;;11.60;10.40;;;;;;;;;;5014127;28;20499;-65
2021/09/13 10:40:11;;;;;;;16.77;11.70;;;;;;;;;;5014100;28;20457;-65
2021/09/13 10:42:39;;;;;;;14.33;10.57;;;;;;;;;;5013694;28;20448;-64
2021/09/13 10:45:15;;;;;;;11.33;10.23;;;;;;;;;;5013855;28;20452;-63
2021/09/13 10:47:43;;;;;;;11.60;10.00;;;;;;;;;;5013870;28;20842;-64
2021/09/13 10:50:16;;;;;;;11.10;9.73;;;;;;;;;;5013444;28;20488;-65
2021/09/13 10:52:44;;;;;;;12.33;9.57;;;;;;;;;;5014696;28;20460;-68
2021/09/13 10:55:18;;;;;;;12.03;8.60;;;;;;;;;;5014133;28;20470;-65
2021/09/13 10:57:59;;;;;;;12.00;8.63;;;;;;;;;;5013652;28;20929;-65
2021/09/13 11:00:44;;;;;;;15.50;8.73;;;;;;;;;;5013484;28;20512;-65
2021/09/13 11:03:32;;;;;;;7.67;6.83;;;;;;;;;;5013909;28;20440;-65
2021/09/13 11:06:25;;;;;;;11.67;7.70;;;;;;;;;;5013470;28;20448;-64
2021/09/13 11:08:53;;;;;;;9.03;7.50;;;;;;;;;;5014579;28;20472;-65
2021/09/13 11:11:21;;;;;;;8.20;7.20;;;;;;;;;;5013561;28;20564;-65
2021/09/13 11:13:50;;;;;;;9.50;6.63;;;;;;;;;;5013896;28;20452;-65
2021/09/13 11:16:17;;;;;;;7.23;6.50;;;;;;;;;;5013342;28;20794;-65
2021/09/13 11:18:46;;;;;;;8.07;6.73;;;;;;;;;;5014139;28;20503;-65
2021/09/13 11:21:18;;;;;;;6.93;5.77;;;;;;;;;;5013616;28;20483;-65
2021/09/13 11:23:45;;;;;;;9.90;6.80;;;;;;;;;;5013528;28;20484;-65
2021/09/13 11:26:12;;;;;;;7.20;6.50;;;;;;;;;;5013351;28;20519;-64
2021/09/13 11:28:56;;;;;;;10.47;5.57;;;;;;;;;;5013530;28;20453;-64
2021/09/13 11:31:30;;;;;;;7.13;5.13;;;;;;;;;;5013760;28;20480;-62
2021/09/13 11:33:58;;;;;;;7.33;5.47;;;;;;;;;;5013780;28;20447;-64
2021/09/13 11:36:29;;;;;;;26.87;7.37;;;;;;;;;;5014137;28;20448;-63
2021/09/13 11:38:56;;;;;;;7.20;5.67;;;;;;;;;;5014339;28;20499;-64
2021/09/13 11:41:24;;;;;;;5.90;5.30;;;;;;;;;;5013571;28;21064;-62
2021/09/13 11:44:01;;;;;;;7.97;6.33;;;;;;;;;;5013528;28;20461;-63
2021/09/13 11:46:29;;;;;;;5.97;5.47;;;;;;;;;;5014103;28;20456;-65
2021/09/13 11:48:56;;;;;;;5.63;5.10;;;;;;;;;;5014507;28;20481;-63
2021/09/13 11:51:23;;;;;;;6.73;5.50;;;;;;;;;;5013903;28;20472;-65
2021/09/13 11:54:10;;;;;;;8.90;5.93;;;;;;;;;;5013790;28;20511;-64
2021/09/13 11:56:37;;;;;;;6.93;6.03;;;;;;;;;;5014035;28;20937;-64
2021/09/13 11:59:05;;;;;;;6.70;5.90;;;;;;;;;;5013407;28;20450;-65
2021/09/13 12:01:32;;;;;;;6.47;5.77;;;;;;;;;;5013956;28;20886;-63
2021/09/13 12:03:59;;;;;;;6.90;5.67;;;;;;;;;;5013642;28;20499;-64
2021/09/13 12:06:26;;;;;;;8.30;5.50;;;;;;;;;;5014047;28;20514;-64
2021/09/13 12:08:54;;;;;;;7.07;5.20;;;;;;;;;;5013640;28;20949;-65
2021/09/13 12:11:22;;;;;;;6.27;5.47;;;;;;;;;;5013402;28;20984;-65
2021/09/13 12:13:49;;;;;;;7.77;4.80;;;;;;;;;;5013998;28;20511;-64
2021/09/13 12:16:17;;;;;;;9.30;5.47;;;;;;;;;;5013724;28;20450;-64
2021/09/13 12:18:44;;;;;;;5.90;5.30;;;;;;;;;;5013821;28;20623;-64
2021/09/13 12:21:20;;;;;;;6.20;4.90;;;;;;;;;;5016272;28;20472;-64
2021/09/13 12:23:56;;;;;;;5.20;4.27;;;;;;;;;;5014072;28;20920;-64
2021/09/13 12:26:27;;;;;;;6.47;4.67;;;;;;;;;;5013297;28;20438;-64
2021/09/13 12:28:54;;;;;;;7.17;5.67;;;;;;;;;;5014947;28;20520;-64
2021/09/13 12:31:27;;;;;;;7.60;4.57;;;;;;;;;;5017289;28;20542;-65
2021/09/13 12:34:00;;;;;;;4.40;4.00;;;;;;;;;;5017421;28;20859;-65
2021/09/13 12:36:27;;;;;;;5.60;4.60;;;;;;;;;;5016799;28;20875;-66
2021/09/13 12:38:56;;;;;;;5.70;4.73;;;;;;;;;;5017375;28;20456;-64
2021/09/13 12:41:41;;;;;;;4.43;3.97;;;;;;;;;;5016989;28;20477;-64
2021/09/13 12:44:17;;;;;;;6.20;3.83;;;;;;;;;;5017336;28;20909;-65
2021/09/13 12:46:46;;;;;;;9.50;4.97;;;;;;;;;;5034222;28;20463;-63
2021/09/13 12:49:14;;;;;;;6.63;4.17;;;;;;;;;;5030377;28;20549;-64
2021/09/13 12:51:41;;;;;;;5.50;3.90;;;;;;;;;;5025644;28;20476;-64
2021/09/13 12:54:10;;;;;;;4.57;3.90;;;;;;;;;;5028790;28;20445;-65
2021/09/13 12:56:44;;;;;;;8.97;3.70;;;;;;;;;;5017493;28;20453;-65
2021/09/13 12:59:12;;;;;;;4.07;3.60;;;;;;;;;;5017259;28;20487;-65
2021/09/13 13:01:41;;;;;;;6.77;4.73;;;;;;;;;;5016232;28;20473;-64
2021/09/13 13:04:09;;;;;;;5.20;4.67;;;;;;;;;;5015937;28;20449;-64
2021/09/13 13:06:37;;;;;;;8.63;5.60;;;;;;;;;;5016189;28;20528;-64
2021/09/13 13:09:06;;;;;;;6.70;5.93;;;;;;;;;;5015958;28;20861;-63
2021/09/13 13:11:34;;;;;;;6.77;5.60;;;;;;;;;;5016307;28;20496;-63
2021/09/13 13:14:01;;;;;;;9.13;6.10;;;;;;;;;;5016607;28;20450;-65
2021/09/13 13:16:35;;;;;;;7.53;5.87;;;;;;;;;;5016727;28;20449;-64
2021/09/13 13:19:04;;;;;;;7.43;6.07;;;;;;;;;;5016295;28;20508;-64
2021/09/13 13:21:31;;;;;;;7.23;6.20;;;;;;;;;;5016821;28;20829;-64
2021/09/13 13:23:58;;;;;;;8.27;6.03;;;;;;;;;;5015856;28;20446;-64
2021/09/13 13:26:26;;;;;;;6.87;5.70;;;;;;;;;;5015970;28;20450;-65
2021/09/13 13:28:53;;;;;;;4.70;3.17;;;;;;;;;;5015703;28;20793;-65
2021/09/13 13:31:20;;;;;;;4.70;4.30;;;;;;;;;;5015838;28;20488;-65
2021/09/13 13:33:48;;;;;;;4.30;3.70;;;;;;;;;;5016164;28;20453;-64
2021/09/13 13:36:17;;;;;;;3.80;3.50;;;;;;;;;;5015695;28;20450;-65
2021/09/13 13:38:45;;;;;;;5.37;3.40;;;;;;;;;;5015215;28;20862;-65
2021/09/13 13:41:12;;;;;;;5.13;3.10;;;;;;;;;;5015784;28;20532;-64
2021/09/13 13:43:39;;;;;;;3.27;2.90;;;;;;;;;;5015251;28;20512;-64
2021/09/13 13:46:06;;;;;;;4.70;2.63;;;;;;;;;;5015049;28;21008;-65
2021/09/13 13:48:33;;;;;;;3.53;2.90;;;;;;;;;;5015134;28;20536;-64
2021/09/13 13:51:01;;;;;;;3.20;2.90;;;;;;;;;;5015196;28;20547;-63
2021/09/13 13:53:30;;;;;;;5.73;2.57;;;;;;;;;;5015155;28;20473;-63
2021/09/13 13:55:58;;;;;;;3.40;2.73;;;;;;;;;;5015843;28;20512;-64
2021/09/13 13:58:25;;;;;;;3.17;2.53;;;;;;;;;;5015577;28;20528;-64
2021/09/13 14:00:53;;;;;;;3.13;2.60;;;;;;;;;;5015550;28;20462;-64
2021/09/13 14:03:21;;;;;;;3.83;2.47;;;;;;;;;;5015061;28;20548;-66
2021/09/13 14:05:48;;;;;;;3.30;2.60;;;;;;;;;;5015233;28;20443;-64
2021/09/13 14:08:15;;;;;;;4.13;2.57;;;;;;;;;;5015222;28;20462;-62
2021/09/13 14:10:44;;;;;;;2.60;2.37;;;;;;;;;;5015201;28;20494;-63
2021/09/13 14:13:11;;;;;;;2.77;2.47;;;;;;;;;;5015079;28;20484;-63
2021/09/13 14:15:39;;;;;;;2.70;2.50;;;;;;;;;;5014958;28;20470;-64
2021/09/13 14:18:06;;;;;;;2.10;1.90;;;;;;;;;;5014875;28;20454;-64
2021/09/13 14:20:35;;;;;;;3.00;1.90;;;;;;;;;;5014955;28;20458;-64
2021/09/13 14:23:02;;;;;;;2.57;2.30;;;;;;;;;;5016659;28;20458;-64
2021/09/13 14:25:33;;;;;;;3.23;2.03;;;;;;;;;;5017170;28;20457;-64
2021/09/13 14:28:02;;;;;;;2.60;2.30;;;;;;;;;;5014756;28;20547;-64
2021/09/13 14:30:29;;;;;;;2.37;2.10;;;;;;;;;;5014692;28;20481;-64
2021/09/13 14:32:57;;;;;;;3.00;2.70;;;;;;;;;;5015044;28;20450;-64
2021/09/13 14:35:24;;;;;;;3.57;2.77;;;;;;;;;;5014441;28;20454;-64
2021/09/13 14:37:51;;;;;;;3.93;3.07;;;;;;;;;;5014387;28;20449;-63
2021/09/13 14:40:18;;;;;;;5.53;2.93;;;;;;;;;;5014676;28;20447;-63
2021/09/13 14:42:46;;;;;;;2.77;2.10;;;;;;;;;;5014699;28;20504;-65
2021/09/13 14:45:14;;;;;;;5.23;4.40;;;;;;;;;;5014714;28;20524;-62
2021/09/13 14:47:41;;;;;;;4.87;3.77;;;;;;;;;;5014419;28;20532;-65